Buoy 32543

sailwx.info

Track history (hours):
 
Tides and Currents Weather Stations Pressure Air Temp Water Temp Dewpoint Dewpoint Depression Visibility Wind Speed Wind Dir Waves Ship Positions

Zhongguoyuzheng32543

Last reported at 2018-May-31 15:00 UTC. Time now 2018-Jun-18 17:22 UTC.
Position N 20°09' E 106°19'.
Warning: this ship's position is 18 days out of date.

Length 50 m; draft 3.2 m.

Type: Other ship. MMSI: 412352016.

Water temperature 28.8 ° C

Date/timePositionNaut miles runAvg speedWind from/ knotsBaromVisibWave heightAir tempDewpointWater temp
2018-May-31 15:00N 20°09' E 106°19'1 0.6 28.8
2018-May-31 14:00N 20°09' E 106°19'0 0.0 28.9
2018-May-31 13:00N 20°09' E 106°19'1 0.3 29.2
2018-May-31 11:00N 20°09' E 106°20'1 0.6 30.4
2018-May-31 10:00N 20°10' E 106°20'1 0.6 31.6
2018-May-31 08:00N 20°09' E 106°19'1 1.1 34.1
2018-May-31 07:00N 20°09' E 106°20'1 0.1
2018-May-30 23:00N 20°09' E 106°19'0 0.0 27.6
2018-May-30 22:00N 20°09' E 106°19'1 0.6 27.4
2018-May-30 21:00N 20°09' E 106°19'0 0.0 27.6
2018-May-30 20:00N 20°09' E 106°19'1 0.1 27.8
2018-May-30 14:00N 20°09' E 106°19'1 1.3 28.7
2018-May-30 13:00N 20°10' E 106°18'0 0.0 28.9
2018-May-30 11:00N 20°10' E 106°18'1 1.3 29.8
2018-May-30 10:00N 20°09' E 106°19'1 1.1 30.9
2018-May-30 09:00N 20°09' E 106°18'0 0.0 31.6
2018-May-30 08:00N 20°09' E 106°18'0 0.0 33.0
2018-May-30 07:00N 20°09' E 106°18'1 0.2 33.0
2018-May-30 00:00N 20°09' E 106°19'0 0.0 28.5
2018-May-29 23:00N 20°09' E 106°19'0 0.0 27.6
2018-May-29 22:00N 20°09' E 106°19'1 0.6 27.4
2018-May-29 21:00N 20°09' E 106°19'0 0.0 27.4
2018-May-29 14:00N 20°09' E 106°19'0 0.0 28.4
2018-May-29 13:00N 20°09' E 106°19'0 0.0 28.6
2018-May-29 12:00N 20°09' E 106°19'1 0.6 29.1
2018-May-29 11:00N 20°09' E 106°19'0 0.0 29.6
2018-May-29 10:00N 20°09' E 106°19'0 0.0 30.9
2018-May-29 09:00N 20°09' E 106°19'0 0.0 31.9
2018-May-29 08:00N 20°09' E 106°19'0 0.0 33.4
2018-May-29 03:00N 20°09' E 106°19'0 0.0 32.4
2018-May-29 02:00N 20°09' E 106°19'1 0.3 30.7
2018-May-29 00:00N 20°09' E 106°19'0 0.0 26.6
2018-May-28 23:00N 20°09' E 106°19'2 0.8 25.9
2018-May-28 21:00N 20°09' E 106°20'1 1.1 25.8
2018-May-28 20:00N 20°09' E 106°19'1 0.6 25.8
2018-May-28 19:00N 20°09' E 106°19'1 0.1 25.9
2018-May-28 14:00N 20°09' E 106°19'0 0.0 25.9
2018-May-28 12:00N 20°09' E 106°19'0 0.0 26.1
2018-May-28 11:00N 20°09' E 106°19'0 0.0 26.6
2018-May-28 10:00N 20°09' E 106°19'0 0.0 27.0
2018-May-27 22:00N 20°09' E 106°19'0 0.0 25.6
2018-May-27 20:00N 20°09' E 106°19'0 0.0 25.6
2018-May-27 19:00N 20°09' E 106°19'0 0.0 25.6
2018-May-27 14:00N 20°09' E 106°19'0 0.0 25.9
2018-May-27 13:00N 20°09' E 106°19'1 0.6 26.5
2018-May-27 12:00N 20°09' E 106°19'1 0.6 27.2
2018-May-27 11:00N 20°09' E 106°19'0 0.0 28.1
2018-May-27 10:00N 20°09' E 106°19'0 0.0 30.6
2018-May-27 09:00N 20°09' E 106°19'1 0.3 32.5
2018-May-27 07:00N 20°09' E 106°19'0 0.0
2018-May-27 03:00N 20°09' E 106°19'1 0.6 31.6
2018-May-27 02:00N 20°09' E 106°19'0 0.0 31.6
2018-May-27 00:00N 20°09' E 106°19'0 0.0 27.4
2018-May-26 23:00N 20°09' E 106°19'0 0.0 27.4
2018-May-26 22:00N 20°09' E 106°19'0 0.0 27.2
2018-May-26 20:00N 20°09' E 106°19'0 0.0 27.5
2018-May-26 19:00N 20°09' E 106°19'0 0.0 27.6
2018-May-26 14:00N 20°09' E 106°19'0 0.0 27.9
2018-May-26 13:00N 20°09' E 106°19'0 0.0 27.8
2018-May-26 11:00N 20°09' E 106°19'0 0.0 30.1
2018-May-26 10:00N 20°09' E 106°19'0 0.0 31.1
2018-May-26 09:00N 20°09' E 106°19'0 0.0 31.9
2018-May-26 07:00N 20°09' E 106°19'0 0.0 34.6
2018-May-26 06:00N 20°09' E 106°19'0 0.0
2018-May-25 23:00N 20°09' E 106°19'0 0.0 27.5
2018-May-25 21:00N 20°09' E 106°19'0 0.0 27.6
2018-May-25 20:00N 20°09' E 106°19'0 0.0 27.8
2018-May-25 19:00N 20°09' E 106°19'0 0.0 28.1
2018-May-25 14:00N 20°09' E 106°19'1 0.6 28.6
2018-May-25 13:00N 20°09' E 106°19'0 0.0 28.6
2018-May-25 11:00N 20°09' E 106°19'1 0.8 29.4
2018-May-25 10:00N 20°10' E 106°19'1 0.2 30.9
2018-May-25 07:00N 20°09' E 106°19'0 0.0 34.6
2018-May-25 02:00N 20°09' E 106°19'0 0.0 31.8
2018-May-25 00:00N 20°09' E 106°19'0 0.0 28.4
2018-May-24 23:00N 20°09' E 106°19'0 0.0 27.8
2018-May-24 22:00N 20°09' E 106°19'0 0.0 27.8
2018-May-24 21:00N 20°09' E 106°19'0 0.0 27.8
2018-May-24 20:00N 20°09' E 106°19'0 0.0 27.9
2018-May-24 19:00N 20°09' E 106°19'1 0.1 27.9
2018-May-24 15:00N 20°09' E 106°19'0 0.0 28.4
2018-May-24 14:00N 20°09' E 106°19'1 0.6 28.6
2018-May-24 13:00N 20°09' E 106°19'0 0.0 28.8
2018-May-24 12:00N 20°09' E 106°19'0 0.0 29.1
2018-May-24 11:00N 20°09' E 106°19'0 0.0 29.9
2018-May-24 10:00N 20°09' E 106°19'0 0.0 31.1
2018-May-24 09:00N 20°09' E 106°19'0 0.0 32.1
2018-May-24 08:00N 20°09' E 106°19'0 0.0 33.4
2018-May-24 07:00N 20°09' E 106°19'2 0.4 34.5
2018-May-24 03:00N 20°10' E 106°18'2 0.4 31.6
2018-May-23 22:00N 20°09' E 106°20'1 0.3 27.2
2018-May-23 20:00N 20°09' E 106°19'1 0.1 27.5
2018-May-23 11:00N 20°09' E 106°19'0 0.0 29.4
2018-May-23 08:00N 20°09' E 106°19'0 0.0 30.1
2018-May-23 07:00N 20°09' E 106°19'1 0.1 30.1
2018-May-23 01:00N 20°09' E 106°19'0 0.0 27.9
2018-May-22 21:00N 20°09' E 106°19'0 0.0 28.0
2018-May-22 20:00N 20°09' E 106°19'1 0.0 28.1
2018-May-22 08:00N 20°09' E 106°19'0 0.0 30.1
2018-May-22 07:00N 20°09' E 106°19'1 0.3 30.0
2018-May-22 02:00N 20°10' E 106°20'1 0.2 28.2
2018-May-21 21:00N 20°09' E 106°19'0 0.0 27.6
2018-May-21 20:00N 20°09' E 106°19'   27.8
Track history (hours):
 
Tides and Currents Weather Stations Pressure Air Temp Water Temp Dewpoint Dewpoint Depression Visibility Wind Speed Wind Dir Waves Ship Positions

Zhongguoyuzheng32543

Last reported at 2018-May-31 15:00 UTC. Time now 2018-Jun-18 17:22 UTC.
Position N 20°09' E 106°19'.
Warning: this ship's position is 18 days out of date.

Length 50 m; draft 3.2 m.

Type: Other ship. MMSI: 412352016.

Water temperature 28.8 ° C

Date/timePositionNaut miles runAvg speedWind from/ knotsBaromVisibWave heightAir tempDewpointWater temp
2018-May-31 15:00N 20°09' E 106°19'1 0.6 28.8
2018-May-31 14:00N 20°09' E 106°19'0 0.0 28.9
2018-May-31 13:00N 20°09' E 106°19'1 0.3 29.2
2018-May-31 11:00N 20°09' E 106°20'1 0.6 30.4
2018-May-31 10:00N 20°10' E 106°20'1 0.6 31.6
2018-May-31 08:00N 20°09' E 106°19'1 1.1 34.1
2018-May-31 07:00N 20°09' E 106°20'1 0.1
2018-May-30 23:00N 20°09' E 106°19'0 0.0 27.6
2018-May-30 22:00N 20°09' E 106°19'1 0.6 27.4
2018-May-30 21:00N 20°09' E 106°19'0 0.0 27.6
2018-May-30 20:00N 20°09' E 106°19'1 0.1 27.8
2018-May-30 14:00N 20°09' E 106°19'1 1.3 28.7
2018-May-30 13:00N 20°10' E 106°18'0 0.0 28.9
2018-May-30 11:00N 20°10' E 106°18'1 1.3 29.8
2018-May-30 10:00N 20°09' E 106°19'1 1.1 30.9
2018-May-30 09:00N 20°09' E 106°18'0 0.0 31.6
2018-May-30 08:00N 20°09' E 106°18'0 0.0 33.0
2018-May-30 07:00N 20°09' E 106°18'1 0.2 33.0
2018-May-30 00:00N 20°09' E 106°19'0 0.0 28.5
2018-May-29 23:00N 20°09' E 106°19'0 0.0 27.6
2018-May-29 22:00N 20°09' E 106°19'1 0.6 27.4
2018-May-29 21:00N 20°09' E 106°19'0 0.0 27.4
2018-May-29 14:00N 20°09' E 106°19'0 0.0 28.4
2018-May-29 13:00N 20°09' E 106°19'0 0.0 28.6
2018-May-29 12:00N 20°09' E 106°19'1 0.6 29.1
2018-May-29 11:00N 20°09' E 106°19'0 0.0 29.6
2018-May-29 10:00N 20°09' E 106°19'0 0.0 30.9
2018-May-29 09:00N 20°09' E 106°19'0 0.0 31.9
2018-May-29 08:00N 20°09' E 106°19'0 0.0 33.4
2018-May-29 03:00N 20°09' E 106°19'0 0.0 32.4
2018-May-29 02:00N 20°09' E 106°19'1 0.3 30.7
2018-May-29 00:00N 20°09' E 106°19'0 0.0 26.6
2018-May-28 23:00N 20°09' E 106°19'2 0.8 25.9
2018-May-28 21:00N 20°09' E 106°20'1 1.1 25.8
2018-May-28 20:00N 20°09' E 106°19'1 0.6 25.8
2018-May-28 19:00N 20°09' E 106°19'1 0.1 25.9
2018-May-28 14:00N 20°09' E 106°19'0 0.0 25.9
2018-May-28 12:00N 20°09' E 106°19'0 0.0 26.1
2018-May-28 11:00N 20°09' E 106°19'0 0.0 26.6
2018-May-28 10:00N 20°09' E 106°19'0 0.0 27.0
2018-May-27 22:00N 20°09' E 106°19'0 0.0 25.6
2018-May-27 20:00N 20°09' E 106°19'0 0.0 25.6
2018-May-27 19:00N 20°09' E 106°19'0 0.0 25.6
2018-May-27 14:00N 20°09' E 106°19'0 0.0 25.9
2018-May-27 13:00N 20°09' E 106°19'1 0.6 26.5
2018-May-27 12:00N 20°09' E 106°19'1 0.6 27.2
2018-May-27 11:00N 20°09' E 106°19'0 0.0 28.1
2018-May-27 10:00N 20°09' E 106°19'0 0.0 30.6
2018-May-27 09:00N 20°09' E 106°19'1 0.3 32.5
2018-May-27 07:00N 20°09' E 106°19'0 0.0
2018-May-27 03:00N 20°09' E 106°19'1 0.6 31.6
2018-May-27 02:00N 20°09' E 106°19'0 0.0 31.6
2018-May-27 00:00N 20°09' E 106°19'0 0.0 27.4
2018-May-26 23:00N 20°09' E 106°19'0 0.0 27.4
2018-May-26 22:00N 20°09' E 106°19'0 0.0 27.2
2018-May-26 20:00N 20°09' E 106°19'0 0.0 27.5
2018-May-26 19:00N 20°09' E 106°19'0 0.0 27.6
2018-May-26 14:00N 20°09' E 106°19'0 0.0 27.9
2018-May-26 13:00N 20°09' E 106°19'0 0.0 27.8
2018-May-26 11:00N 20°09' E 106°19'0 0.0 30.1
2018-May-26 10:00N 20°09' E 106°19'0 0.0 31.1
2018-May-26 09:00N 20°09' E 106°19'0 0.0 31.9
2018-May-26 07:00N 20°09' E 106°19'0 0.0 34.6
2018-May-26 06:00N 20°09' E 106°19'0 0.0
2018-May-25 23:00N 20°09' E 106°19'0 0.0 27.5
2018-May-25 21:00N 20°09' E 106°19'0 0.0 27.6
2018-May-25 20:00N 20°09' E 106°19'0 0.0 27.8
2018-May-25 19:00N 20°09' E 106°19'0 0.0 28.1
2018-May-25 14:00N 20°09' E 106°19'1 0.6 28.6
2018-May-25 13:00N 20°09' E 106°19'0 0.0 28.6
2018-May-25 11:00N 20°09' E 106°19'1 0.8 29.4
2018-May-25 10:00N 20°10' E 106°19'1 0.2 30.9
2018-May-25 07:00N 20°09' E 106°19'0 0.0 34.6
2018-May-25 02:00N 20°09' E 106°19'0 0.0 31.8
2018-May-25 00:00N 20°09' E 106°19'0 0.0 28.4
2018-May-24 23:00N 20°09' E 106°19'0 0.0 27.8
2018-May-24 22:00N 20°09' E 106°19'0 0.0 27.8
2018-May-24 21:00N 20°09' E 106°19'0 0.0 27.8
2018-May-24 20:00N 20°09' E 106°19'0 0.0 27.9
2018-May-24 19:00N 20°09' E 106°19'1 0.1 27.9
2018-May-24 15:00N 20°09' E 106°19'0 0.0 28.4
2018-May-24 14:00N 20°09' E 106°19'1 0.6 28.6
2018-May-24 13:00N 20°09' E 106°19'0 0.0 28.8
2018-May-24 12:00N 20°09' E 106°19'0 0.0 29.1
2018-May-24 11:00N 20°09' E 106°19'0 0.0 29.9
2018-May-24 10:00N 20°09' E 106°19'0 0.0 31.1
2018-May-24 09:00N 20°09' E 106°19'0 0.0 32.1
2018-May-24 08:00N 20°09' E 106°19'0 0.0 33.4
2018-May-24 07:00N 20°09' E 106°19'2 0.4 34.5
2018-May-24 03:00N 20°10' E 106°18'2 0.4 31.6
2018-May-23 22:00N 20°09' E 106°20'1 0.3 27.2
2018-May-23 20:00N 20°09' E 106°19'1 0.1 27.5
2018-May-23 11:00N 20°09' E 106°19'0 0.0 29.4
2018-May-23 08:00N 20°09' E 106°19'0 0.0 30.1
2018-May-23 07:00N 20°09' E 106°19'1 0.1 30.1
2018-May-23 01:00N 20°09' E 106°19'0 0.0 27.9
2018-May-22 21:00N 20°09' E 106°19'0 0.0 28.0
2018-May-22 20:00N 20°09' E 106°19'1 0.0 28.1
2018-May-22 08:00N 20°09' E 106°19'0 0.0 30.1
2018-May-22 07:00N 20°09' E 106°19'1 0.3 30.0
2018-May-22 02:00N 20°10' E 106°20'1 0.2 28.2
2018-May-21 21:00N 20°09' E 106°19'0 0.0 27.6
2018-May-21 20:00N 20°09' E 106°19'   27.8

Dump ship's entire track history